Fu Ning Wan — VRDN9 — position and weather

sailwx.info

Track history (hours):
 
Tides and Currents Weather Stations Pressure Air Temp Water Temp Dewpoint Dewpoint Depression Visibility Wind Speed Wind Dir Waves Ship Positions

Fu Ning Wan

Last reported at 2018-Feb-22 23:23 UTC. Time now 2018-Feb-25 01:55 UTC.
Position N 32°02' E 120°30'.

Length 107 m; draft 6.4 m.

Type: Tanker. MMSI: 477003600.

Date/timePositionNaut miles runAvg speedWind from/ knotsBaromVisibWave heightAir tempDewpointWater temp
2018-Feb-22 23:23N 32°02' E 120°30'4510.5
2018-Feb-22 19:04N 31°38' E 121°15'311.4
2018-Feb-22 18:49N 31°36' E 121°17'41 3.8
2018-Feb-22 08:02N 31°09' E 121°53'1 9.7
2018-Feb-22 07:57N 31°09' E 121°54'511.0
2018-Feb-22 07:30N 31°06' E 121°59'612.5
2018-Feb-22 07:00N 31°04' E 122°06'611.9
2018-Feb-22 06:30N 31°03' E 122°13'3 5.4
2018-Feb-22 06:00N 31°03' E 122°16'2 3.5
2018-Feb-22 05:26N 31°03' E 122°18'3 6.0
2018-Feb-22 05:00N 31°02' E 122°21'510.1
2018-Feb-22 04:30N 31°01' E 122°27'  
Track history (hours):
 
Tides and Currents Weather Stations Pressure Air Temp Water Temp Dewpoint Dewpoint Depression Visibility Wind Speed Wind Dir Waves Ship Positions

Fu Ning Wan

Last reported at 2018-Feb-22 23:23 UTC. Time now 2018-Feb-25 01:55 UTC.
Position N 32°02' E 120°30'.

Length 107 m; draft 6.4 m.

Type: Tanker. MMSI: 477003600.

Date/timePositionNaut miles runAvg speedWind from/ knotsBaromVisibWave heightAir tempDewpointWater temp
2018-Feb-22 23:23N 32°02' E 120°30'4510.5
2018-Feb-22 19:04N 31°38' E 121°15'311.4
2018-Feb-22 18:49N 31°36' E 121°17'41 3.8
2018-Feb-22 08:02N 31°09' E 121°53'1 9.7
2018-Feb-22 07:57N 31°09' E 121°54'511.0
2018-Feb-22 07:30N 31°06' E 121°59'612.5
2018-Feb-22 07:00N 31°04' E 122°06'611.9
2018-Feb-22 06:30N 31°03' E 122°13'3 5.4
2018-Feb-22 06:00N 31°03' E 122°16'2 3.5
2018-Feb-22 05:26N 31°03' E 122°18'3 6.0
2018-Feb-22 05:00N 31°02' E 122°21'510.1
2018-Feb-22 04:30N 31°01' E 122°27'  

Dump ship's entire track history